Knossos Palace — SYQO — position and weather

sailwx.info

Track history (hours):
 
Tides and Currents Weather Stations Pressure Air Temp Water Temp Dewpoint Dewpoint Depression Visibility Wind Speed Wind Dir Waves Ship Positions

Knossos Palace

Last reported at 2016-Feb-12 20:32 UTC. Time now 2016-Feb-13 12:47 UTC.
Position N 37°33' E 023°45'.

Length 214 m; beam 26.4 m; draft 7.3 m.

Type: Ship. MMSI: 237641000.

Date/timePositionNaut miles runAvg speedWind from/ knotsBaromVisibWave heightAir tempDewpointWater temp
2016-Feb-12 20:32N 37°33' E 023°45'1818.4
2016-Feb-12 19:34N 37°50' E 023°37'7 6.7
2016-Feb-12 18:33N 37°57' E 023°38'0 0.0
2016-Feb-12 17:33N 37°57' E 023°38'0 0.0
2016-Feb-12 16:33N 37°57' E 023°38'0 0.0
2016-Feb-12 15:33N 37°57' E 023°38'0 0.0
2016-Feb-12 14:33N 37°57' E 023°38'0 0.0
2016-Feb-12 13:30N 37°57' E 023°38'0 0.0
2016-Feb-12 12:33N 37°57' E 023°38'0 0.0
2016-Feb-12 11:27N 37°57' E 023°38'0 0.0
2016-Feb-12 10:33N 37°57' E 023°38'0 0.0
2016-Feb-12 09:33N 37°57' E 023°38'0 0.0
2016-Feb-12 08:33N 37°57' E 023°38'0 0.0
2016-Feb-12 07:30N 37°57' E 023°38'0 0.0
2016-Feb-12 06:33N 37°57' E 023°38'0 0.0
2016-Feb-12 05:33N 37°57' E 023°38'0 0.0
2016-Feb-12 04:33N 37°57' E 023°38'1313.3
2016-Feb-12 03:33N 37°44' E 023°45'4 0.1
2016-Feb-10 20:34N 37°42' E 023°41'1514.9
2016-Feb-10 19:33N 37°57' E 023°38'0 0.0
2016-Feb-10 18:33N 37°57' E 023°38'0 0.0
2016-Feb-10 17:32N 37°57' E 023°38'0 0.0
2016-Feb-10 16:32N 37°57' E 023°38'0 0.0
2016-Feb-10 15:29N 37°57' E 023°38'0 0.0
2016-Feb-10 14:32N 37°57' E 023°38'0 0.0
2016-Feb-10 13:32N 37°57' E 023°38'0 0.0
2016-Feb-10 12:32N 37°57' E 023°38'0 0.0
2016-Feb-10 11:32N 37°57' E 023°38'0 0.0
2016-Feb-10 10:32N 37°57' E 023°38'0 0.0
2016-Feb-10 09:32N 37°57' E 023°38'0 0.0
2016-Feb-10 08:29N 37°57' E 023°38'0 0.0
2016-Feb-10 07:32N 37°57' E 023°38'0 0.0
2016-Feb-10 06:26N 37°57' E 023°38'0 0.0
2016-Feb-10 05:32N 37°57' E 023°38'0 0.0
2016-Feb-10 04:33N 37°57' E 023°38'1111.5
2016-Feb-10 03:33N 37°46' E 023°43'13 0.4
2016-Feb-08 20:32N 37°33' E 023°46'1818.8
2016-Feb-08 19:33N 37°50' E 023°37'7 6.5
2016-Feb-08 18:33N 37°57' E 023°38'0 0.0
2016-Feb-08 17:31N 37°57' E 023°38'0 0.0
2016-Feb-08 16:31N 37°57' E 023°38'0 0.0
2016-Feb-08 15:31N 37°57' E 023°38'0 0.0
2016-Feb-08 14:31N 37°57' E 023°38'0 0.0
2016-Feb-08 13:31N 37°57' E 023°38'0 0.0
2016-Feb-08 12:31N 37°57' E 023°38'0 0.0
2016-Feb-08 11:31N 37°57' E 023°38'0 0.0
2016-Feb-08 10:31N 37°57' E 023°38'0 0.0
2016-Feb-08 09:31N 37°57' E 023°38'0 0.0
2016-Feb-08 08:31N 37°57' E 023°38'0 0.0
2016-Feb-08 07:31N 37°57' E 023°38'0 0.0
2016-Feb-08 06:31N 37°57' E 023°38'0 0.0
2016-Feb-08 05:31N 37°57' E 023°38'0 0.1
2016-Feb-08 04:33N 37°57' E 023°38'1414.2
2016-Feb-08 03:34N 37°43' E 023°44'10 0.3
2016-Feb-06 20:28N 37°34' E 023°45'1719.0
2016-Feb-06 19:33N 37°50' E 023°37'7 6.9
2016-Feb-06 18:33N 37°57' E 023°38'0 0.0
2016-Feb-06 17:31N 37°57' E 023°38'0 0.0
2016-Feb-06 16:31N 37°57' E 023°38'0 0.0
2016-Feb-06 15:31N 37°57' E 023°38'0 0.0
2016-Feb-06 14:31N 37°57' E 023°38'0 0.0
2016-Feb-06 13:31N 37°57' E 023°38'0 0.0
2016-Feb-06 12:31N 37°57' E 023°38'0 0.0
2016-Feb-06 11:31N 37°57' E 023°38'0 0.0
2016-Feb-06 10:31N 37°57' E 023°38'0 0.0
2016-Feb-06 09:31N 37°57' E 023°38'0 0.0
2016-Feb-06 08:31N 37°57' E 023°38'0 0.0
2016-Feb-06 07:31N 37°57' E 023°38'0 0.0
2016-Feb-06 06:31N 37°57' E 023°38'0 0.0
2016-Feb-06 05:31N 37°57' E 023°38'0 0.0
2016-Feb-06 04:31N 37°57' E 023°38'0 0.0
2016-Feb-06 03:31N 37°57' E 023°38'0 0.0
2016-Feb-06 02:31N 37°57' E 023°38'0 0.0
2016-Feb-06 01:31N 37°57' E 023°38'0 0.0
2016-Feb-06 00:34N 37°57' E 023°38'0 0.0
2016-Feb-05 23:31N 37°57' E 023°38'0 0.0
2016-Feb-05 22:31N 37°57' E 023°38'0 0.0
2016-Feb-05 21:31N 37°57' E 023°38'0 0.0
2016-Feb-05 20:31N 37°57' E 023°38'0 0.0
2016-Feb-05 19:31N 37°57' E 023°38'0 0.0
2016-Feb-05 18:31N 37°57' E 023°38'0 0.0
2016-Feb-05 17:31N 37°57' E 023°38'0 0.0
2016-Feb-05 16:31N 37°57' E 023°38'0 0.0
2016-Feb-05 15:31N 37°57' E 023°38'0 0.0
2016-Feb-05 14:31N 37°57' E 023°38'0 0.0
2016-Feb-05 13:31N 37°57' E 023°38'0 0.0
2016-Feb-05 12:31N 37°57' E 023°38'0 0.0
2016-Feb-05 11:34N 37°57' E 023°38'0 0.0
2016-Feb-05 10:31N 37°57' E 023°38'0 0.0
2016-Feb-05 09:31N 37°57' E 023°38'0 0.0
2016-Feb-05 08:31N 37°57' E 023°38'0 0.0
2016-Feb-05 07:31N 37°57' E 023°38'0 0.0
2016-Feb-05 06:31N 37°57' E 023°38'0 0.0
2016-Feb-05 05:31N 37°57' E 023°38'0 0.0
2016-Feb-05 04:31N 37°57' E 023°38'0 0.0
2016-Feb-05 03:31N 37°57' E 023°38'0 0.0
2016-Feb-05 02:31N 37°57' E 023°38'0 0.0
2016-Feb-05 01:31N 37°57' E 023°38'0 0.0
2016-Feb-05 00:31N 37°57' E 023°38'0 0.0
2016-Feb-04 23:31N 37°57' E 023°38'0 0.0
2016-Feb-04 22:31N 37°57' E 023°38'0 0.0
2016-Feb-04 21:31N 37°57' E 023°38'0 0.0
2016-Feb-04 20:31N 37°57' E 023°38'0 0.0
2016-Feb-04 19:31N 37°57' E 023°38'0 0.0
2016-Feb-04 18:31N 37°57' E 023°38'0 0.0
2016-Feb-04 17:31N 37°57' E 023°38'0 0.0
2016-Feb-04 16:31N 37°57' E 023°38'0 0.0
2016-Feb-04 15:31N 37°57' E 023°38'0 0.0
2016-Feb-04 14:31N 37°57' E 023°38'0 0.0
2016-Feb-04 13:31N 37°57' E 023°38'0 0.0
2016-Feb-04 12:31N 37°57' E 023°38'0 0.0
2016-Feb-04 11:31N 37°57' E 023°38'0 0.0
2016-Feb-04 10:31N 37°57' E 023°38'0 0.0
2016-Feb-04 09:31N 37°57' E 023°38'0 0.0
2016-Feb-04 08:31N 37°57' E 023°38'0 0.0
2016-Feb-04 07:31N 37°57' E 023°38'0 0.0
2016-Feb-04 06:31N 37°57' E 023°38'0 0.0
2016-Feb-04 05:31N 37°57' E 023°38'0 0.2
2016-Feb-04 04:33N 37°56' E 023°38'1514.8
2016-Feb-04 03:33N 37°43' E 023°45'10120.1
2016-Feb-03 22:31N 36°10' E 024°36'4320.0
2016-Feb-03 20:22N 35°32' E 025°02'13 1.5
2016-Feb-03 12:05N 35°21' E 025°09'0 0.0
2016-Feb-03 11:32N 35°21' E 025°09'0 0.0
2016-Feb-03 10:33N 35°21' E 025°09'0 0.0
2016-Feb-03 08:22N 35°21' E 025°09'0 0.0
2016-Feb-03 05:22N 35°21' E 025°09'4012.5
2016-Feb-03 02:12N 35°55' E 024°45'  
Track history (hours):
 
Tides and Currents Weather Stations Pressure Air Temp Water Temp Dewpoint Dewpoint Depression Visibility Wind Speed Wind Dir Waves Ship Positions

Knossos Palace

Last reported at 2016-Feb-12 20:32 UTC. Time now 2016-Feb-13 12:47 UTC.
Position N 37°33' E 023°45'.

Length 214 m; beam 26.4 m; draft 7.3 m.

Type: Ship. MMSI: 237641000.

Date/timePositionNaut miles runAvg speedWind from/ knotsBaromVisibWave heightAir tempDewpointWater temp
2016-Feb-12 20:32N 37°33' E 023°45'1818.4
2016-Feb-12 19:34N 37°50' E 023°37'7 6.7
2016-Feb-12 18:33N 37°57' E 023°38'0 0.0
2016-Feb-12 17:33N 37°57' E 023°38'0 0.0
2016-Feb-12 16:33N 37°57' E 023°38'0 0.0
2016-Feb-12 15:33N 37°57' E 023°38'0 0.0
2016-Feb-12 14:33N 37°57' E 023°38'0 0.0
2016-Feb-12 13:30N 37°57' E 023°38'0 0.0
2016-Feb-12 12:33N 37°57' E 023°38'0 0.0
2016-Feb-12 11:27N 37°57' E 023°38'0 0.0
2016-Feb-12 10:33N 37°57' E 023°38'0 0.0
2016-Feb-12 09:33N 37°57' E 023°38'0 0.0
2016-Feb-12 08:33N 37°57' E 023°38'0 0.0
2016-Feb-12 07:30N 37°57' E 023°38'0 0.0
2016-Feb-12 06:33N 37°57' E 023°38'0 0.0
2016-Feb-12 05:33N 37°57' E 023°38'0 0.0
2016-Feb-12 04:33N 37°57' E 023°38'1313.3
2016-Feb-12 03:33N 37°44' E 023°45'4 0.1
2016-Feb-10 20:34N 37°42' E 023°41'1514.9
2016-Feb-10 19:33N 37°57' E 023°38'0 0.0
2016-Feb-10 18:33N 37°57' E 023°38'0 0.0
2016-Feb-10 17:32N 37°57' E 023°38'0 0.0
2016-Feb-10 16:32N 37°57' E 023°38'0 0.0
2016-Feb-10 15:29N 37°57' E 023°38'0 0.0
2016-Feb-10 14:32N 37°57' E 023°38'0 0.0
2016-Feb-10 13:32N 37°57' E 023°38'0 0.0
2016-Feb-10 12:32N 37°57' E 023°38'0 0.0
2016-Feb-10 11:32N 37°57' E 023°38'0 0.0
2016-Feb-10 10:32N 37°57' E 023°38'0 0.0
2016-Feb-10 09:32N 37°57' E 023°38'0 0.0
2016-Feb-10 08:29N 37°57' E 023°38'0 0.0
2016-Feb-10 07:32N 37°57' E 023°38'0 0.0
2016-Feb-10 06:26N 37°57' E 023°38'0 0.0
2016-Feb-10 05:32N 37°57' E 023°38'0 0.0
2016-Feb-10 04:33N 37°57' E 023°38'1111.5
2016-Feb-10 03:33N 37°46' E 023°43'13 0.4
2016-Feb-08 20:32N 37°33' E 023°46'1818.8
2016-Feb-08 19:33N 37°50' E 023°37'7 6.5
2016-Feb-08 18:33N 37°57' E 023°38'0 0.0
2016-Feb-08 17:31N 37°57' E 023°38'0 0.0
2016-Feb-08 16:31N 37°57' E 023°38'0 0.0
2016-Feb-08 15:31N 37°57' E 023°38'0 0.0
2016-Feb-08 14:31N 37°57' E 023°38'0 0.0
2016-Feb-08 13:31N 37°57' E 023°38'0 0.0
2016-Feb-08 12:31N 37°57' E 023°38'0 0.0
2016-Feb-08 11:31N 37°57' E 023°38'0 0.0
2016-Feb-08 10:31N 37°57' E 023°38'0 0.0
2016-Feb-08 09:31N 37°57' E 023°38'0 0.0
2016-Feb-08 08:31N 37°57' E 023°38'0 0.0
2016-Feb-08 07:31N 37°57' E 023°38'0 0.0
2016-Feb-08 06:31N 37°57' E 023°38'0 0.0
2016-Feb-08 05:31N 37°57' E 023°38'0 0.1
2016-Feb-08 04:33N 37°57' E 023°38'1414.2
2016-Feb-08 03:34N 37°43' E 023°44'10 0.3
2016-Feb-06 20:28N 37°34' E 023°45'1719.0
2016-Feb-06 19:33N 37°50' E 023°37'7 6.9
2016-Feb-06 18:33N 37°57' E 023°38'0 0.0
2016-Feb-06 17:31N 37°57' E 023°38'0 0.0
2016-Feb-06 16:31N 37°57' E 023°38'0 0.0
2016-Feb-06 15:31N 37°57' E 023°38'0 0.0
2016-Feb-06 14:31N 37°57' E 023°38'0 0.0
2016-Feb-06 13:31N 37°57' E 023°38'0 0.0
2016-Feb-06 12:31N 37°57' E 023°38'0 0.0
2016-Feb-06 11:31N 37°57' E 023°38'0 0.0
2016-Feb-06 10:31N 37°57' E 023°38'0 0.0
2016-Feb-06 09:31N 37°57' E 023°38'0 0.0
2016-Feb-06 08:31N 37°57' E 023°38'0 0.0
2016-Feb-06 07:31N 37°57' E 023°38'0 0.0
2016-Feb-06 06:31N 37°57' E 023°38'0 0.0
2016-Feb-06 05:31N 37°57' E 023°38'0 0.0
2016-Feb-06 04:31N 37°57' E 023°38'0 0.0
2016-Feb-06 03:31N 37°57' E 023°38'0 0.0
2016-Feb-06 02:31N 37°57' E 023°38'0 0.0
2016-Feb-06 01:31N 37°57' E 023°38'0 0.0
2016-Feb-06 00:34N 37°57' E 023°38'0 0.0
2016-Feb-05 23:31N 37°57' E 023°38'0 0.0
2016-Feb-05 22:31N 37°57' E 023°38'0 0.0
2016-Feb-05 21:31N 37°57' E 023°38'0 0.0
2016-Feb-05 20:31N 37°57' E 023°38'0 0.0
2016-Feb-05 19:31N 37°57' E 023°38'0 0.0
2016-Feb-05 18:31N 37°57' E 023°38'0 0.0
2016-Feb-05 17:31N 37°57' E 023°38'0 0.0
2016-Feb-05 16:31N 37°57' E 023°38'0 0.0
2016-Feb-05 15:31N 37°57' E 023°38'0 0.0
2016-Feb-05 14:31N 37°57' E 023°38'0 0.0
2016-Feb-05 13:31N 37°57' E 023°38'0 0.0
2016-Feb-05 12:31N 37°57' E 023°38'0 0.0
2016-Feb-05 11:34N 37°57' E 023°38'0 0.0
2016-Feb-05 10:31N 37°57' E 023°38'0 0.0
2016-Feb-05 09:31N 37°57' E 023°38'0 0.0
2016-Feb-05 08:31N 37°57' E 023°38'0 0.0
2016-Feb-05 07:31N 37°57' E 023°38'0 0.0
2016-Feb-05 06:31N 37°57' E 023°38'0 0.0
2016-Feb-05 05:31N 37°57' E 023°38'0 0.0
2016-Feb-05 04:31N 37°57' E 023°38'0 0.0
2016-Feb-05 03:31N 37°57' E 023°38'0 0.0
2016-Feb-05 02:31N 37°57' E 023°38'0 0.0
2016-Feb-05 01:31N 37°57' E 023°38'0 0.0
2016-Feb-05 00:31N 37°57' E 023°38'0 0.0
2016-Feb-04 23:31N 37°57' E 023°38'0 0.0
2016-Feb-04 22:31N 37°57' E 023°38'0 0.0
2016-Feb-04 21:31N 37°57' E 023°38'0 0.0
2016-Feb-04 20:31N 37°57' E 023°38'0 0.0
2016-Feb-04 19:31N 37°57' E 023°38'0 0.0
2016-Feb-04 18:31N 37°57' E 023°38'0 0.0
2016-Feb-04 17:31N 37°57' E 023°38'0 0.0
2016-Feb-04 16:31N 37°57' E 023°38'0 0.0
2016-Feb-04 15:31N 37°57' E 023°38'0 0.0
2016-Feb-04 14:31N 37°57' E 023°38'0 0.0
2016-Feb-04 13:31N 37°57' E 023°38'0 0.0
2016-Feb-04 12:31N 37°57' E 023°38'0 0.0
2016-Feb-04 11:31N 37°57' E 023°38'0 0.0
2016-Feb-04 10:31N 37°57' E 023°38'0 0.0
2016-Feb-04 09:31N 37°57' E 023°38'0 0.0
2016-Feb-04 08:31N 37°57' E 023°38'0 0.0
2016-Feb-04 07:31N 37°57' E 023°38'0 0.0
2016-Feb-04 06:31N 37°57' E 023°38'0 0.0
2016-Feb-04 05:31N 37°57' E 023°38'0 0.2
2016-Feb-04 04:33N 37°56' E 023°38'1514.8
2016-Feb-04 03:33N 37°43' E 023°45'10120.1
2016-Feb-03 22:31N 36°10' E 024°36'4320.0
2016-Feb-03 20:22N 35°32' E 025°02'13 1.5
2016-Feb-03 12:05N 35°21' E 025°09'0 0.0
2016-Feb-03 11:32N 35°21' E 025°09'0 0.0
2016-Feb-03 10:33N 35°21' E 025°09'0 0.0
2016-Feb-03 08:22N 35°21' E 025°09'0 0.0
2016-Feb-03 05:22N 35°21' E 025°09'4012.5
2016-Feb-03 02:12N 35°55' E 024°45'  

Dump ship's entire track history